Time;durP1;ratioP1;P1;durP2;ratioP2;P2;SDS_P1;SDS_P2;PMS_P1;PMS_P2;Temp;Humidity;BMP_temperature;BMP_pressure;BME280_temperature;BME280_humidity;BME280_pressure;Samples;Min_cycle;Max_cycle;Signal;HPM_P1;HPM_P2
2022/08/30 00:03:16;;;;;;;3.77;3.37;;;;;;;18.79;58.44;101840.63;4962619;29;20301;-64
2022/08/30 00:05:42;;;;;;;6.23;3.47;;;;;;;18.58;58.59;101853.97;4962586;29;20532;-64
2022/08/30 00:08:08;;;;;;;3.03;2.83;;;;;;;18.88;58.25;101842.38;4962473;28;20594;-63
2022/08/30 00:10:34;;;;;;;4.67;3.10;;;;;;;18.93;58.16;101842.34;4962765;29;20481;-63
2022/08/30 00:13:00;;;;;;;3.70;3.20;;;;;;;18.77;58.23;101834.50;4962310;29;20550;-64
2022/08/30 00:15:26;;;;;;;3.30;3.00;;;;;;;18.63;58.46;101833.72;4961825;28;20474;-64
2022/08/30 00:17:51;;;;;;;3.47;2.87;;;;;;;18.69;58.62;101838.97;4962208;29;20227;-65
2022/08/30 00:20:23;;;;;;;4.80;4.30;;;;;;;18.96;58.25;101843.19;4961467;28;20474;-65
2022/08/30 00:22:48;;;;;;;7.33;5.30;;;;;;;18.93;58.23;101842.34;4961817;29;20169;-64
2022/08/30 00:25:14;;;;;;;4.57;4.17;;;;;;;19.01;57.95;101846.69;4962081;29;20464;-64
2022/08/30 00:27:40;;;;;;;5.90;4.20;;;;;;;19.01;57.50;101846.69;4962118;29;20173;-64
2022/08/30 00:30:07;;;;;;;7.53;4.30;;;;;;;18.99;57.71;101847.59;4962410;28;20503;-66
2022/08/30 00:32:32;;;;;;;4.53;3.70;;;;;;;18.91;57.79;101847.63;4944814;29;20402;-65
2022/08/30 00:34:58;;;;;;;6.30;5.33;;;;;;;19.00;57.57;101844.06;4961488;29;20526;-65
2022/08/30 00:37:23;;;;;;;3.87;3.50;;;;;;;18.74;58.05;101853.03;4962143;29;20175;-65
2022/08/30 00:39:49;;;;;;;3.93;3.37;;;;;;;18.84;58.05;101856.47;4961944;28;20248;-64
2022/08/30 00:42:15;;;;;;;3.27;2.97;;;;;;;19.01;57.64;101859.00;4961984;29;20535;-65
2022/08/30 00:44:40;;;;;;;5.40;3.13;;;;;;;19.27;57.12;101860.59;4962047;28;20200;-65
2022/08/30 00:47:06;;;;;;;3.63;3.10;;;;;;;19.18;57.52;101862.41;4961778;29;20181;-65
2022/08/30 00:49:33;;;;;;;5.00;4.37;;;;;;;19.01;57.63;101865.19;4929115;29;20177;-65
2022/08/30 00:51:59;;;;;;;4.20;3.20;;;;;;;18.71;58.31;101866.22;4944889;29;20169;-64
2022/08/30 00:54:24;;;;;;;3.40;3.10;;;;;;;18.89;58.01;101862.66;4944801;29;20468;-64
2022/08/30 00:56:51;;;;;;;3.30;3.00;;;;;;;19.14;57.18;101863.31;4961744;29;20831;-65
2022/08/30 00:59:16;;;;;;;3.40;3.10;;;;;;;18.89;58.18;101869.66;4929462;29;20187;-65
2022/08/30 01:01:42;;;;;;;3.57;2.63;;;;;;;18.79;57.93;101861.78;4942232;29;20403;-65
2022/08/30 01:04:08;;;;;;;3.60;3.30;;;;;;;18.58;58.54;101864.53;4941416;29;20174;-65
2022/08/30 01:06:34;;;;;;;3.17;2.87;;;;;;;18.75;58.52;101860.03;4942222;29;20201;-64
2022/08/30 01:09:01;;;;;;;3.53;2.93;;;;;;;18.82;57.61;101861.78;4942386;29;20392;-64
2022/08/30 01:11:27;;;;;;;5.80;3.10;;;;;;;18.62;58.81;101874.22;4941429;29;20802;-65
2022/08/30 01:13:54;;;;;;;2.97;2.77;;;;;;;18.59;58.60;101876.88;4941900;29;20483;-64
2022/08/30 01:16:20;;;;;;;3.60;3.20;;;;;;;18.87;58.04;101874.94;4942331;29;20181;-65
2022/08/30 01:18:46;;;;;;;3.43;3.10;;;;;;;18.56;59.00;101875.13;4941490;29;20810;-65
2022/08/30 01:21:24;;;;;;;3.27;2.97;;;;;;;18.45;59.08;101883.09;4942312;29;20477;-65
2022/08/30 01:23:52;;;;;;;4.60;3.10;;;;;;;18.71;58.28;101882.06;4945554;29;20217;-65
2022/08/30 01:26:18;;;;;;;3.57;3.27;;;;;;;18.87;57.99;101874.06;4960365;29;20403;-66
2022/08/30 01:28:49;;;;;;;3.10;2.80;;;;;;;18.72;58.21;101888.25;4961110;29;20424;-64
2022/08/30 01:31:15;;;;;;;5.67;3.00;;;;;;;18.68;58.00;101888.25;4960336;29;20651;-65
2022/08/30 01:33:40;;;;;;;3.40;3.10;;;;;;;18.67;58.39;101889.16;4961096;28;20407;-64
2022/08/30 01:36:11;;;;;;;4.30;3.37;;;;;;;18.81;57.84;101881.16;4960998;29;20177;-65
2022/08/30 01:38:41;;;;;;;3.40;3.10;;;;;;;18.64;58.37;101883.00;4944091;29;20200;-65
2022/08/30 01:41:15;;;;;;;3.10;2.80;;;;;;;18.60;58.35;101883.91;4944143;29;20414;-66
2022/08/30 01:43:41;;;;;;;6.33;3.30;;;;;;;18.84;57.99;101881.13;4959921;28;20421;-65
2022/08/30 01:46:09;;;;;;;3.97;3.00;;;;;;;18.85;58.13;101876.72;4961194;29;20395;-65
2022/08/30 01:48:34;;;;;;;4.40;3.33;;;;;;;19.00;57.65;101881.06;4960672;28;20215;-65
2022/08/30 01:50:59;;;;;;;2.93;2.63;;;;;;;19.04;57.38;101874.88;4960721;29;20426;-65
2022/08/30 01:53:25;;;;;;;3.40;3.00;;;;;;;19.01;57.51;101877.50;4960832;29;20248;-65
2022/08/30 01:55:50;;;;;;;3.00;2.80;;;;;;;18.81;57.56;101878.50;4960662;29;20208;-65
2022/08/30 01:58:16;;;;;;;2.97;2.77;;;;;;;18.89;57.60;101873.22;4960618;29;20252;-64
2022/08/30 02:00:41;;;;;;;2.90;2.60;;;;;;;18.29;58.85;101878.78;4944465;29;20478;-64
2022/08/30 02:03:06;;;;;;;4.30;3.00;;;;;;;18.80;57.75;101866.19;4960497;29;20180;-64
2022/08/30 02:05:32;;;;;;;3.37;3.07;;;;;;;18.64;57.89;101868.03;4943867;29;20169;-64
2022/08/30 02:07:58;;;;;;;3.10;2.90;;;;;;;18.66;57.54;101871.56;4960033;29;20493;-64
2022/08/30 02:10:23;;;;;;;3.00;2.70;;;;;;;18.58;58.04;101869.81;4960362;29;20168;-65
2022/08/30 02:12:49;;;;;;;3.27;2.73;;;;;;;18.70;57.65;101872.44;4960309;29;20555;-64
2022/08/30 02:15:15;;;;;;;3.40;3.10;;;;;;;18.84;57.08;101872.31;4960592;28;20196;-64
2022/08/30 02:17:41;;;;;;;3.40;2.67;;;;;;;18.35;58.81;101881.41;4960353;29;20303;-65
2022/08/30 02:20:07;;;;;;;3.80;3.13;;;;;;;18.74;57.64;101871.50;4960332;29;20431;-65
2022/08/30 02:22:32;;;;;;;5.00;3.53;;;;;;;17.99;59.32;101867.44;4960978;29;20177;-65
2022/08/30 02:24:57;;;;;;;4.13;3.13;;;;;;;18.48;58.60;101867.25;4959868;28;20253;-65
2022/08/30 02:27:24;;;;;;;3.17;2.87;;;;;;;18.60;57.84;101865.44;4959675;29;20173;-64
2022/08/30 02:29:50;;;;;;;3.10;2.80;;;;;;;18.65;58.01;101869.78;4960771;28;20161;-66
2022/08/30 02:32:15;;;;;;;3.70;3.13;;;;;;;18.79;57.55;101867.06;4943509;29;20877;-65
2022/08/30 02:34:41;;;;;;;4.00;2.83;;;;;;;18.72;57.88;101865.34;4959936;29;20236;-65
2022/08/30 02:37:06;;;;;;;4.63;3.00;;;;;;;18.42;58.68;101861.13;4960585;29;20184;-65
2022/08/30 02:39:31;;;;;;;3.50;3.20;;;;;;;18.49;58.19;101874.28;4960007;29;20173;-65
2022/08/30 02:41:57;;;;;;;3.60;3.30;;;;;;;18.43;58.47;101871.69;4960048;29;20594;-65
2022/08/30 02:44:22;;;;;;;3.40;3.10;;;;;;;18.44;58.43;101865.53;4960098;28;20162;-64
2022/08/30 02:46:47;;;;;;;3.50;3.17;;;;;;;18.21;59.02;101881.44;4960129;29;20180;-64
2022/08/30 02:49:13;;;;;;;8.00;3.23;;;;;;;18.67;58.24;101875.06;4960032;28;20196;-64
2022/08/30 02:51:39;;;;;;;4.20;2.83;;;;;;;18.37;58.56;101863.78;4960457;28;20164;-64
2022/08/30 02:54:04;;;;;;;5.83;3.20;;;;;;;18.30;58.98;101872.63;4959462;28;20476;-64
2022/08/30 02:56:30;;;;;;;3.40;3.10;;;;;;;18.45;58.65;101872.53;4959732;29;20424;-66
2022/08/30 02:58:55;;;;;;;3.53;3.23;;;;;;;18.44;58.91;101870.81;4960391;29;20176;-66
2022/08/30 03:01:21;;;;;;;5.20;3.07;;;;;;;18.55;58.58;101869.84;4960041;28;20190;-64
2022/08/30 03:03:46;;;;;;;4.43;3.10;;;;;;;18.68;58.28;101872.41;4959615;28;20277;-64
2022/08/30 03:06:13;;;;;;;3.50;3.00;;;;;;;18.66;58.22;101868.03;4960081;29;20173;-64
2022/08/30 03:08:38;;;;;;;3.30;3.00;;;;;;;18.59;58.57;101872.47;4959815;29;20181;-65
2022/08/30 03:11:04;;;;;;;3.30;3.00;;;;;;;18.40;59.52;101869.06;4959751;28;20383;-65
2022/08/30 03:13:29;;;;;;;3.30;3.00;;;;;;;18.23;59.58;101866.50;4956150;28;20181;-64
2022/08/30 03:15:55;;;;;;;3.40;3.03;;;;;;;18.64;59.03;101868.03;4958230;28;20223;-64
2022/08/30 03:18:21;;;;;;;4.33;3.13;;;;;;;18.52;58.71;101862.81;4959458;29;20567;-65
2022/08/30 03:20:47;;;;;;;5.13;3.20;;;;;;;18.34;59.22;101863.81;4959396;29;20413;-64
2022/08/30 03:23:13;;;;;;;3.87;2.90;;;;;;;18.53;58.89;101869.88;4959289;29;20188;-65
2022/08/30 03:25:39;;;;;;;4.30;3.10;;;;;;;18.58;58.69;101865.44;4958757;29;20447;-65
2022/08/30 03:28:05;;;;;;;3.80;3.40;;;;;;;18.59;59.04;101875.13;4959688;29;20673;-65
2022/08/30 03:30:31;;;;;;;4.50;3.00;;;;;;;18.51;58.73;101869.88;4959463;29;20450;-65
2022/08/30 03:32:56;;;;;;;3.10;2.90;;;;;;;18.62;58.75;101871.59;4959191;29;20407;-65
2022/08/30 03:35:22;;;;;;;3.90;3.23;;;;;;;18.43;59.90;101870.78;4959546;28;20201;-64
2022/08/30 03:37:48;;;;;;;3.60;3.30;;;;;;;18.46;59.98;101873.44;4958808;29;20227;-63
2022/08/30 03:40:15;;;;;;;4.00;3.13;;;;;;;18.45;59.70;101872.53;4959315;29;20169;-64
2022/08/30 03:42:41;;;;;;;3.83;3.43;;;;;;;18.21;60.29;101875.28;4959292;29;20383;-65
2022/08/30 03:45:08;;;;;;;3.30;3.00;;;;;;;18.38;60.35;101880.53;4959262;28;20799;-64
2022/08/30 03:47:34;;;;;;;5.20;2.80;;;;;;;18.33;60.87;101876.13;4958702;29;20173;-65
2022/08/30 03:49:59;;;;;;;3.70;3.23;;;;;;;18.41;61.11;101875.22;4958843;29;20405;-64
2022/08/30 03:52:25;;;;;;;3.90;3.47;;;;;;;18.58;60.67;101875.09;4958533;29;20201;-65
2022/08/30 03:54:51;;;;;;;4.90;3.20;;;;;;;18.33;61.67;101880.53;4958587;29;20219;-64
2022/08/30 03:57:16;;;;;;;4.40;3.00;;;;;;;18.74;61.04;101873.25;4959286;29;20519;-65
2022/08/30 03:59:42;;;;;;;3.50;3.20;;;;;;;18.80;60.96;101870.59;4959083;29;20185;-66
2022/08/30 04:02:07;;;;;;;4.27;3.87;;;;;;;18.51;61.57;101869.88;4959013;29;20417;-66
2022/08/30 04:04:33;;;;;;;4.60;3.20;;;;;;;18.60;61.73;101871.56;4959250;29;20161;-65
2022/08/30 04:06:58;;;;;;;3.70;3.30;;;;;;;18.51;62.25;101876.94;4960851;28;20602;-65
2022/08/30 04:09:24;;;;;;;4.23;3.20;;;;;;;18.43;62.62;101876.97;4961865;29;20622;-64
2022/08/30 04:11:49;;;;;;;3.20;2.90;;;;;;;18.21;63.19;101877.94;4962396;29;20173;-64
2022/08/30 04:14:15;;;;;;;3.60;3.30;;;;;;;18.60;62.28;101876.00;4962289;29;20594;-65
2022/08/30 04:16:40;;;;;;;3.40;3.10;;;;;;;18.58;61.99;101873.38;4962440;28;20271;-64
2022/08/30 04:19:06;;;;;;;4.10;3.07;;;;;;;18.54;62.14;101876.00;4962635;28;20169;-64
2022/08/30 04:21:31;;;;;;;3.80;3.40;;;;;;;18.45;62.72;101872.53;4962360;29;20177;-64
2022/08/30 04:23:57;;;;;;;3.80;3.40;;;;;;;18.13;63.79;101875.31;4961882;29;20231;-66
2022/08/30 04:26:22;;;;;;;3.87;3.47;;;;;;;18.26;64.19;101878.81;4962388;28;20165;-66
2022/08/30 04:28:47;;;;;;;3.97;3.30;;;;;;;18.14;64.96;101871.81;4961899;29;20543;-66
2022/08/30 04:31:15;;;;;;;3.87;3.47;;;;;;;18.21;64.83;101870.00;4962148;29;20165;-65
2022/08/30 04:33:40;;;;;;;3.97;3.57;;;;;;;18.18;65.15;101877.09;4962198;29;20177;-65
2022/08/30 04:36:06;;;;;;;4.73;3.90;;;;;;;18.06;64.74;101881.50;4961753;29;20402;-65
2022/08/30 04:38:32;;;;;;;4.83;3.53;;;;;;;18.01;65.09;101881.53;4962031;29;20161;-64
2022/08/30 04:40:58;;;;;;;4.73;4.30;;;;;;;18.11;64.69;101887.66;4962133;29;20431;-65
2022/08/30 04:43:25;;;;;;;3.83;3.53;;;;;;;18.27;63.89;101885.84;4961799;29;20169;-65
2022/08/30 04:45:52;;;;;;;3.70;3.40;;;;;;;18.31;63.69;101884.94;4961637;28;20420;-65
2022/08/30 04:48:17;;;;;;;3.90;3.50;;;;;;;17.82;65.07;101886.81;4962397;29;20823;-66
2022/08/30 04:50:43;;;;;;;4.10;3.50;;;;;;;17.78;65.38;101886.81;4961800;28;20427;-64
2022/08/30 04:53:08;;;;;;;3.70;3.40;;;;;;;17.84;64.95;101887.69;4961527;29;20248;-62
2022/08/30 04:55:34;;;;;;;4.00;3.60;;;;;;;18.02;63.81;101896.47;4961737;29;20237;-66
2022/08/30 04:57:59;;;;;;;3.90;3.50;;;;;;;18.20;63.72;101882.34;4960996;28;20169;-66
2022/08/30 05:00:25;;;;;;;4.00;3.60;;;;;;;18.21;63.75;101897.28;4961564;29;20255;-67
2022/08/30 05:02:50;;;;;;;6.03;3.60;;;;;;;18.27;63.51;101897.25;4961520;29;20256;-65
2022/08/30 05:08:01;;;;;;;3.83;3.50;;;;;;;18.29;62.91;101891.97;4961416;29;20187;-66
2022/08/30 05:10:26;;;;;;;6.73;3.80;;;;;;;18.38;62.77;101896.34;4961500;29;20648;-66
2022/08/30 05:12:52;;;;;;;4.60;3.50;;;;;;;18.34;62.69;101900.75;4961284;29;20188;-67
2022/08/30 05:15:18;;;;;;;3.80;3.50;;;;;;;18.30;62.68;101899.03;4961673;29;20200;-66
2022/08/30 05:17:43;;;;;;;4.00;3.60;;;;;;;18.54;62.17;101905.06;4960513;28;20420;-67
2022/08/30 05:20:10;;;;;;;6.40;3.97;;;;;;;18.63;62.18;101905.03;4960980;28;20177;-66
2022/08/30 05:22:37;;;;;;;7.07;4.20;;;;;;;18.61;61.80;101904.16;4961402;29;20169;-66
2022/08/30 05:25:04;;;;;;;8.43;3.90;;;;;;;18.66;61.88;101907.66;4960678;28;20729;-67
2022/08/30 05:27:29;;;;;;;8.80;3.70;;;;;;;18.63;61.88;101905.03;4961078;28;20417;-66
2022/08/30 05:29:54;;;;;;;4.83;3.57;;;;;;;18.61;62.26;101910.31;4961362;29;20375;-66
2022/08/30 05:32:20;;;;;;;4.10;3.63;;;;;;;18.48;62.06;101913.91;4961057;29;20172;-67
2022/08/30 05:34:45;;;;;;;11.97;4.17;;;;;;;18.96;61.16;101914.56;4960777;29;20460;-66
2022/08/30 05:37:10;;;;;;;12.37;4.40;;;;;;;19.21;60.14;101905.56;4960804;29;20554;-67
2022/08/30 05:39:36;;;;;;;17.23;4.43;;;;;;;18.95;60.72;101911.94;4960806;28;20183;-67
2022/08/30 05:42:01;;;;;;;9.50;4.33;;;;;;;18.82;61.50;101908.44;4960684;29;20605;-65
2022/08/30 05:44:27;;;;;;;9.07;3.67;;;;;;;19.12;60.12;101910.03;4960825;28;20187;-66
2022/08/30 05:46:52;;;;;;;7.70;3.40;;;;;;;18.85;60.39;101909.31;4960706;28;20181;-66
2022/08/30 05:49:17;;;;;;;4.97;3.20;;;;;;;19.06;59.84;101902.16;4960619;29;20173;-66
2022/08/30 05:51:43;;;;;;;5.13;3.40;;;;;;;18.74;60.71;101908.50;4960961;29;20252;-66
2022/08/30 05:54:10;;;;;;;9.13;6.00;;;;;;;18.70;61.17;101912.03;4960027;28;20271;-66
2022/08/30 05:56:37;;;;;;;3.60;3.20;;;;;;;19.06;60.00;101912.72;4960373;29;20180;-66
2022/08/30 05:59:04;;;;;;;6.23;4.10;;;;;;;19.13;59.86;101913.56;4960891;29;20420;-66
2022/08/30 06:01:33;;;;;;;4.60;3.80;;;;;;;19.45;59.37;101921.22;4943857;29;20432;-66
2022/08/30 06:04:00;;;;;;;5.50;4.13;;;;;;;19.13;59.63;101908.25;4960377;29;20417;-65
2022/08/30 06:06:27;;;;;;;4.47;3.77;;;;;;;19.45;58.93;101905.38;4959830;28;20470;-66
2022/08/30 06:08:53;;;;;;;6.40;3.73;;;;;;;19.22;59.60;101912.63;4960206;28;20820;-66
2022/08/30 06:11:21;;;;;;;7.03;3.97;;;;;;;19.50;58.98;101919.44;4960004;29;20391;-66
2022/08/30 06:13:47;;;;;;;5.57;4.00;;;;;;;19.61;58.77;101926.41;4960266;29;20571;-66
2022/08/30 06:16:14;;;;;;;9.73;4.67;;;;;;;19.77;58.17;101917.44;4960098;29;20391;-66
2022/08/30 06:18:39;;;;;;;4.87;3.67;;;;;;;19.84;57.83;101913.84;4959218;29;20424;-66
2022/08/30 06:21:05;;;;;;;4.67;3.60;;;;;;;20.28;56.51;101916.00;4960454;28;20822;-66
2022/08/30 06:23:31;;;;;;;3.60;3.30;;;;;;;20.05;57.21;101916.28;4959890;29;20169;-67
2022/08/30 06:26:03;;;;;;;6.63;4.10;;;;;;;20.24;56.61;101914.31;4943399;29;20420;-66
2022/08/30 06:28:28;;;;;;;5.20;3.80;;;;;;;19.80;58.04;101914.78;4943055;28;20270;-66
2022/08/30 06:30:54;;;;;;;4.00;3.60;;;;;;;20.01;57.03;101918.06;4959818;29;20482;-69
2022/08/30 06:33:19;;;;;;;8.90;4.10;;;;;;;20.11;56.98;101913.59;4959903;29;20169;-66
2022/08/30 06:35:44;;;;;;;4.33;3.40;;;;;;;20.47;55.92;101909.59;4959986;28;20442;-66
2022/08/30 06:38:10;;;;;;;5.80;3.40;;;;;;;20.49;56.17;101912.22;4959960;28;20212;-66
2022/08/30 06:40:35;;;;;;;6.23;4.10;;;;;;;20.44;56.58;101922.88;4959887;29;20200;-66
2022/08/30 06:43:01;;;;;;;7.03;3.97;;;;;;;20.82;55.61;101916.22;4960147;29;20555;-66
2022/08/30 06:45:26;;;;;;;7.33;5.20;;;;;;;20.88;55.21;101917.91;4959441;29;20251;-66
2022/08/30 06:47:52;;;;;;;5.30;4.80;;;;;;;19.92;57.85;101927.00;4943136;29;20184;-66
2022/08/30 06:50:18;;;;;;;5.40;3.40;;;;;;;19.25;59.76;101916.09;4959969;28;20243;-64
2022/08/30 06:52:44;;;;;;;6.50;5.63;;;;;;;20.36;56.80;101914.16;4959729;28;20498;-66
2022/08/30 06:55:12;;;;;;;9.87;4.50;;;;;;;20.39;57.32;101916.78;4959563;29;20563;-66
2022/08/30 06:57:38;;;;;;;5.13;3.80;;;;;;;20.12;57.93;101920.59;4943177;29;20224;-65
2022/08/30 07:00:07;;;;;;;6.30;3.83;;;;;;;20.36;57.88;101907.09;4942790;29;20483;-65
2022/08/30 07:02:35;;;;;;;4.80;3.53;;;;;;;20.45;56.57;101906.09;4959223;29;20192;-65
2022/08/30 07:05:01;;;;;;;4.67;4.10;;;;;;;20.94;56.36;101911.63;4959797;29;20459;-65
2022/08/30 07:07:27;;;;;;;5.13;3.73;;;;;;;20.83;56.13;101914.44;4959659;29;20814;-65
2022/08/30 07:09:52;;;;;;;3.20;2.90;;;;;;;20.26;57.91;101917.81;4959543;28;20482;-65
2022/08/30 07:12:18;;;;;;;6.37;5.70;;;;;;;19.92;59.83;101920.84;4959939;29;20175;-64
2022/08/30 07:14:43;;;;;;;6.83;3.90;;;;;;;20.27;57.99;101928.38;4959327;28;20339;-66
2022/08/30 07:19:53;;;;;;;5.47;4.03;;;;;;;20.42;58.52;101922.03;4959560;29;20613;-65
2022/08/30 07:22:19;;;;;;;5.70;3.20;;;;;;;21.22;56.26;101920.03;4958815;28;20409;-66
2022/08/30 07:24:44;;;;;;;3.70;3.07;;;;;;;20.24;58.39;101923.13;4959217;28;20709;-65
2022/08/30 07:27:10;;;;;;;5.50;3.40;;;;;;;20.86;57.22;101920.59;4942736;29;20173;-64
2022/08/30 07:29:35;;;;;;;3.30;2.87;;;;;;;19.62;60.84;101936.97;4959616;29;20191;-65
2022/08/30 07:32:00;;;;;;;3.50;3.20;;;;;;;19.40;61.85;101940.69;4959325;28;20304;-64
2022/08/30 07:34:26;;;;;;;5.53;3.20;;;;;;;18.89;63.97;101941.91;4958937;28;20216;-66
2022/08/30 07:36:51;;;;;;;5.80;3.50;;;;;;;18.59;64.91;101946.44;4959590;29;20180;-66
2022/08/30 07:39:17;;;;;;;3.50;3.20;;;;;;;18.96;64.62;101945.41;4959332;29;20177;-66
2022/08/30 07:41:43;;;;;;;3.53;3.10;;;;;;;19.09;64.04;101943.53;4960666;28;20188;-67
2022/08/30 07:44:09;;;;;;;3.47;3.17;;;;;;;20.19;60.82;101939.06;4962124;29;20543;-65
2022/08/30 07:46:36;;;;;;;5.40;3.50;;;;;;;22.37;55.55;101934.84;4961870;28;20764;-65
2022/08/30 07:49:02;;;;;;;4.30;3.80;;;;;;;21.98;55.67;101938.19;4962915;28;20471;-65
2022/08/30 07:51:28;;;;;;;3.63;3.33;;;;;;;23.47;51.41;101927.03;4962848;29;20420;-65
2022/08/30 07:53:54;;;;;;;7.83;3.60;;;;;;;22.59;53.40;101929.06;4962497;29;20436;-66
2022/08/30 07:56:20;;;;;;;4.40;3.00;;;;;;;21.64;55.94;101937.97;4962706;28;20181;-66
2022/08/30 07:58:46;;;;;;;4.73;3.53;;;;;;;19.95;60.97;101944.63;4962938;29;20169;-65
2022/08/30 08:01:12;;;;;;;3.60;3.30;;;;;;;20.50;60.25;101945.78;4961796;28;20420;-64
2022/08/30 08:03:41;;;;;;;5.20;3.10;;;;;;;20.04;61.05;101944.53;4962382;29;20173;-64
2022/08/30 08:06:07;;;;;;;4.13;2.80;;;;;;;20.91;59.93;101940.84;4962590;29;20412;-64
2022/08/30 08:08:35;;;;;;;9.43;3.60;;;;;;;21.81;56.41;101941.19;4962254;29;20471;-65
2022/08/30 08:11:21;;;;;;;7.17;3.93;;;;;;;21.47;56.43;101941.75;4962599;28;20420;-66
2022/08/30 08:13:48;;;;;;;4.47;3.40;;;;;;;20.18;61.79;101952.31;4962263;29;20416;-65
2022/08/30 08:16:14;;;;;;;5.80;3.70;;;;;;;20.07;61.49;101963.03;4962459;28;20427;-65
2022/08/30 08:18:39;;;;;;;6.50;3.20;;;;;;;20.66;60.11;101959.69;4962361;28;20519;-65
2022/08/30 08:21:04;;;;;;;3.47;2.80;;;;;;;20.32;60.88;101968.03;4962361;29;20205;-65
2022/08/30 08:23:30;;;;;;;6.60;4.03;;;;;;;21.70;57.72;101957.31;4961603;28;20172;-64
2022/08/30 08:25:55;;;;;;;3.10;2.80;;;;;;;20.64;59.74;101969.44;4961803;28;20227;-65
2022/08/30 08:28:21;;;;;;;5.50;3.33;;;;;;;19.89;62.02;101968.50;4961889;28;20425;-64
2022/08/30 08:30:48;;;;;;;3.70;3.27;;;;;;;20.52;60.27;101966.03;4962279;28;20169;-65
2022/08/30 08:33:14;;;;;;;4.63;3.00;;;;;;;20.90;59.20;101961.16;4961844;28;20478;-65
2022/08/30 08:35:39;;;;;;;4.50;3.30;;;;;;;19.22;63.64;101976.06;4962303;28;20456;-64
2022/08/30 08:38:05;;;;;;;5.40;3.17;;;;;;;19.41;63.30;101972.41;4961931;29;20173;-66
2022/08/30 08:40:37;;;;;;;4.77;3.03;;;;;;;19.76;62.84;101978.31;4961862;29;20459;-66
2022/08/30 08:43:10;;;;;;;4.20;2.90;;;;;;;20.13;61.14;101978.88;4944703;29;20227;-66
2022/08/30 08:46:03;;;;;;;4.00;3.10;;;;;;;19.32;63.22;101983.94;4961878;29;20421;-65
2022/08/30 08:48:37;;;;;;;4.83;2.47;;;;;;;19.83;62.24;101980.03;4961718;29;20401;-65
2022/08/30 08:53:52;;;;;;;4.70;2.90;;;;;;;20.80;59.30;101970.16;4960815;29;20443;-66
2022/08/30 08:56:18;;;;;;;4.13;3.30;;;;;;;20.83;58.49;101965.66;4960994;28;20452;-65
2022/08/30 08:58:46;;;;;;;2.83;2.47;;;;;;;20.32;59.96;101974.25;4961401;28;20433;-66
2022/08/30 09:01:14;;;;;;;4.17;2.70;;;;;;;22.05;55.50;101965.50;4961897;29;20169;-65
2022/08/30 09:03:40;;;;;;;3.00;2.53;;;;;;;22.77;53.09;101970.31;4961390;28;20424;-66
2022/08/30 09:06:47;;;;;;;2.77;2.40;;;;;;;21.12;56.10;101976.75;4961523;29;20421;-64
2022/08/30 09:09:13;;;;;;;3.50;2.67;;;;;;;22.79;53.11;101969.38;4961442;29;20177;-65
2022/08/30 09:11:39;;;;;;;3.50;2.70;;;;;;;22.93;52.44;101968.19;4961539;29;20555;-65
2022/08/30 09:14:09;;;;;;;2.70;2.23;;;;;;;21.36;55.51;101971.09;4960293;28;20221;-64
2022/08/30 09:17:00;;;;;;;3.53;2.93;;;;;;;22.28;54.61;101972.19;4944239;29;20447;-65
2022/08/30 09:19:50;;;;;;;7.87;2.80;;;;;;;21.12;57.55;101977.66;4961254;29;20666;-65
2022/08/30 09:22:21;;;;;;;5.80;2.20;;;;;;;21.08;56.29;101970.66;4961195;28;20420;-66
2022/08/30 09:24:53;;;;;;;4.83;2.30;;;;;;;22.10;54.55;101961.00;4960805;29;20464;-65
2022/08/30 09:27:26;;;;;;;3.17;2.40;;;;;;;21.76;54.83;101969.59;4961139;28;20416;-66
2022/08/30 09:29:56;;;;;;;3.77;2.77;;;;;;;21.23;57.21;101972.19;4961017;28;20806;-66
2022/08/30 09:32:32;;;;;;;4.27;2.90;;;;;;;21.05;58.69;101967.16;4960898;29;20543;-65
2022/08/30 09:34:58;;;;;;;3.17;2.40;;;;;;;21.36;57.82;101970.22;4960638;28;20463;-65
2022/08/30 09:37:38;;;;;;;3.20;2.70;;;;;;;21.33;57.49;101980.88;4944066;29;20424;-65
2022/08/30 09:40:10;;;;;;;3.07;2.73;;;;;;;20.55;60.09;101981.00;4943887;29;20260;-65
2022/08/30 09:42:36;;;;;;;3.03;2.73;;;;;;;21.00;58.73;101973.41;4960999;28;20560;-65
2022/08/30 09:45:10;;;;;;;8.80;3.10;;;;;;;21.09;58.58;101979.47;4960553;28;20870;-67
2022/08/30 09:47:42;;;;;;;4.33;3.13;;;;;;;21.36;57.08;101978.16;4960663;28;20195;-66
2022/08/30 09:50:14;;;;;;;3.53;2.83;;;;;;;20.76;59.43;101985.22;4960397;28;20405;-64
2022/08/30 09:52:51;;;;;;;4.80;3.20;;;;;;;21.06;58.33;101985.69;4960567;29;20416;-65
2022/08/30 09:55:26;;;;;;;4.93;3.03;;;;;;;21.33;57.55;101978.22;4960409;29;20506;-65
2022/08/30 09:58:36;;;;;;;4.53;2.60;;;;;;;21.48;55.90;101975.31;4943826;29;20472;-66
2022/08/30 10:01:10;;;;;;;5.70;2.90;;;;;;;20.50;59.54;101986.38;4902023;29;20663;-71
2022/08/30 10:04:01;;;;;;;3.67;3.13;;;;;;;20.72;58.43;101994.09;4901394;29;20450;-64
2022/08/30 10:06:38;;;;;;;2.97;2.67;;;;;;;21.27;57.48;101986.25;4928536;29;20435;-64
2022/08/30 10:09:15;;;;;;;2.67;2.47;;;;;;;21.35;56.71;101987.03;4943833;29;20416;-65
2022/08/30 10:11:56;;;;;;;3.10;2.60;;;;;;;20.75;58.20;102002.00;4960303;28;20450;-64
2022/08/30 10:14:44;;;;;;;6.73;3.00;;;;;;;20.03;60.09;101993.06;4959425;29;20459;-62
2022/08/30 10:17:45;;;;;;;3.90;2.73;;;;;;;21.28;57.29;101990.69;4960182;29;20400;-64
2022/08/30 10:20:42;;;;;;;5.50;2.93;;;;;;;21.70;56.15;101985.59;4960278;29;20507;-64
2022/08/30 10:23:21;;;;;;;3.00;2.70;;;;;;;21.12;56.59;101988.25;4955505;29;20424;-64
2022/08/30 10:25:56;;;;;;;3.70;2.77;;;;;;;21.09;56.57;101988.28;4943555;29;20482;-64
2022/08/30 10:28:43;;;;;;;3.30;3.00;;;;;;;20.77;56.49;101986.97;4960032;29;20420;-64
2022/08/30 10:31:41;;;;;;;3.13;2.83;;;;;;;21.28;55.18;101985.38;4959873;29;20429;-64
2022/08/30 10:34:24;;;;;;;3.13;2.83;;;;;;;20.22;57.74;101987.59;4954395;29;20480;-63
2022/08/30 10:36:56;;;;;;;3.10;2.73;;;;;;;20.18;58.55;101987.59;4942935;29;20424;-63
2022/08/30 10:39:23;;;;;;;6.70;3.00;;;;;;;20.65;58.14;101987.09;4943350;29;20416;-64
2022/08/30 10:42:13;;;;;;;3.90;3.10;;;;;;;20.07;58.89;101984.22;4958906;29;20472;-64
2022/08/30 10:44:43;;;;;;;3.20;2.73;;;;;;;21.04;56.16;101976.91;4949305;28;20688;-63
2022/08/30 10:47:20;;;;;;;4.30;3.30;;;;;;;19.90;58.55;101976.41;4960011;29;20417;-63
2022/08/30 10:49:48;;;;;;;3.67;3.37;;;;;;;20.72;55.64;101978.19;4959726;29;20499;-63
2022/08/30 10:52:34;;;;;;;4.03;3.60;;;;;;;20.90;55.07;101977.06;4959836;29;20425;-62
2022/08/30 10:55:14;;;;;;;6.80;3.60;;;;;;;20.67;55.20;101977.34;4942904;29;20472;-63
2022/08/30 10:57:39;;;;;;;4.67;3.30;;;;;;;20.83;54.10;101972.75;4942373;29;20455;-63
2022/08/30 11:00:11;;;;;;;3.23;2.90;;;;;;;21.68;53.10;101961.75;4959532;29;20451;-64
2022/08/30 11:03:07;;;;;;;3.90;3.47;;;;;;;21.80;51.43;101965.97;4958951;29;20182;-65
2022/08/30 11:06:00;;;;;;;3.40;2.80;;;;;;;20.68;53.28;101980.00;4959590;29;20423;-64
2022/08/30 11:08:37;;;;;;;5.70;3.00;;;;;;;21.64;51.02;101965.34;4959672;28;20732;-63
2022/08/30 11:11:49;;;;;;;5.90;2.73;;;;;;;23.62;46.35;101952.38;4959053;29;20431;-64
2022/08/30 11:14:16;;;;;;;3.70;2.90;;;;;;;26.94;39.73;101938.09;4958460;29;20470;-63
2022/08/30 11:16:45;;;;;;;3.90;2.90;;;;;;;23.69;45.14;101953.94;4962125;28;20413;-64
2022/08/30 11:19:33;;;;;;;3.20;2.90;;;;;;;22.75;47.06;101951.72;4962718;28;20876;-65
2022/08/30 11:22:22;;;;;;;4.57;2.80;;;;;;;23.55;46.45;101947.19;4963257;28;20412;-64
2022/08/30 11:25:02;;;;;;;3.67;3.00;;;;;;;21.84;50.32;101957.06;4962453;29;20891;-63
2022/08/30 11:27:51;;;;;;;4.13;3.00;;;;;;;25.03;44.36;101946.63;4946578;28;20424;-65
2022/08/30 11:30:25;;;;;;;6.70;3.13;;;;;;;23.66;46.48;101938.06;4963105;29;20413;-63
2022/08/30 11:33:03;;;;;;;7.00;3.20;;;;;;;22.22;49.25;101951.94;4962784;29;20431;-63
2022/08/30 11:35:43;;;;;;;3.80;3.20;;;;;;;22.27;50.22;101952.72;4962972;29;20732;-62
2022/08/30 11:38:44;;;;;;;4.00;3.03;;;;;;;22.23;51.29;101955.44;4963165;29;20654;-63
2022/08/30 11:41:13;;;;;;;5.00;3.10;;;;;;;20.94;54.88;101962.00;4963039;29;20416;-63
2022/08/30 11:43:41;;;;;;;4.70;3.23;;;;;;;21.94;52.62;101943.63;4962891;28;20416;-64